sensor_id;sensor_type;location;lat;lon;timestamp;pressure;altitude;pressure_sealevel;temperature;humidity
78313;BME280;67568;47.438;21.408;2023-06-19T00:01:38;100463.84;;;17.76;77.88
78313;BME280;67568;47.438;21.408;2023-06-19T00:04:05;100467.72;;;17.84;77.77
78313;BME280;67568;47.438;21.408;2023-06-19T00:06:32;100460.88;;;17.82;78.06
78313;BME280;67568;47.438;21.408;2023-06-19T00:09:01;100468.44;;;17.81;77.75
78313;BME280;67568;47.438;21.408;2023-06-19T00:11:32;100473.66;;;17.70;78.94
78313;BME280;67568;47.438;21.408;2023-06-19T00:13:59;100467.22;;;17.70;78.64
78313;BME280;67568;47.438;21.408;2023-06-19T00:16:40;100479.25;;;17.70;78.75
78313;BME280;67568;47.438;21.408;2023-06-19T00:19:09;100477.81;;;17.64;79.18
78313;BME280;67568;47.438;21.408;2023-06-19T00:21:35;100480.59;;;17.52;79.68
78313;BME280;67568;47.438;21.408;2023-06-19T00:24:05;100479.91;;;17.55;79.64
78313;BME280;67568;47.438;21.408;2023-06-19T00:26:32;100475.38;;;17.50;79.73
78313;BME280;67568;47.438;21.408;2023-06-19T00:29:05;100478.41;;;17.58;79.29
78313;BME280;67568;47.438;21.408;2023-06-19T00:31:42;100473.00;;;17.52;79.31
78313;BME280;67568;47.438;21.408;2023-06-19T00:34:09;100470.56;;;17.51;79.20
78313;BME280;67568;47.438;21.408;2023-06-19T00:36:35;100473.38;;;17.51;79.00
78313;BME280;67568;47.438;21.408;2023-06-19T00:39:02;100464.97;;;17.51;79.51
78313;BME280;67568;47.438;21.408;2023-06-19T00:41:30;100471.38;;;17.39;80.16
78313;BME280;67568;47.438;21.408;2023-06-19T00:43:59;100462.72;;;17.44;80.28
78313;BME280;67568;47.438;21.408;2023-06-19T00:46:26;100465.06;;;17.42;79.64
78313;BME280;67568;47.438;21.408;2023-06-19T00:48:53;100470.88;;;17.37;80.68
78313;BME280;67568;47.438;21.408;2023-06-19T00:51:23;100473.28;;;17.26;80.73
78313;BME280;67568;47.438;21.408;2023-06-19T00:53:50;100474.47;;;17.25;80.40
78313;BME280;67568;47.438;21.408;2023-06-19T00:56:17;100478.50;;;17.16;80.99
78313;BME280;67568;47.438;21.408;2023-06-19T00:58:44;100475.94;;;17.11;81.28
78313;BME280;67568;47.438;21.408;2023-06-19T01:01:11;100468.81;;;16.92;82.16
78313;BME280;67568;47.438;21.408;2023-06-19T01:03:41;100472.50;;;16.84;82.53
78313;BME280;67568;47.438;21.408;2023-06-19T01:06:10;100457.63;;;16.92;82.17
78313;BME280;67568;47.438;21.408;2023-06-19T01:09:04;100461.81;;;16.86;82.03
78313;BME280;67568;47.438;21.408;2023-06-19T01:11:37;100463.84;;;16.77;82.26
78313;BME280;67568;47.438;21.408;2023-06-19T01:14:14;100460.38;;;16.80;82.42
78313;BME280;67568;47.438;21.408;2023-06-19T01:16:43;100465.84;;;16.76;82.52
78313;BME280;67568;47.438;21.408;2023-06-19T01:19:15;100456.69;;;16.88;82.10
78313;BME280;67568;47.438;21.408;2023-06-19T01:21:45;100463.34;;;16.75;82.27
78313;BME280;67568;47.438;21.408;2023-06-19T01:24:14;100452.16;;;16.75;82.44
78313;BME280;67568;47.438;21.408;2023-06-19T01:26:42;100470.91;;;16.74;82.10
78313;BME280;67568;47.438;21.408;2023-06-19T01:29:08;100461.50;;;16.79;81.64
78313;BME280;67568;47.438;21.408;2023-06-19T01:31:45;100468.56;;;16.85;82.05
78313;BME280;67568;47.438;21.408;2023-06-19T01:34:17;100474.16;;;16.85;82.00
78313;BME280;67568;47.438;21.408;2023-06-19T01:36:47;100472.50;;;16.84;82.11
78313;BME280;67568;47.438;21.408;2023-06-19T01:39:15;100472.91;;;16.74;82.56
78313;BME280;67568;47.438;21.408;2023-06-19T01:41:43;100479.16;;;16.50;83.77
78313;BME280;67568;47.438;21.408;2023-06-19T01:44:11;100481.00;;;16.46;83.82
78313;BME280;67568;47.438;21.408;2023-06-19T01:46:38;100476.41;;;16.62;82.93
78313;BME280;67568;47.438;21.408;2023-06-19T01:49:08;100477.94;;;16.59;82.66
78313;BME280;67568;47.438;21.408;2023-06-19T01:51:36;100476.47;;;16.03;86.48
78313;BME280;67568;47.438;21.408;2023-06-19T01:54:03;100472.34;;;16.30;84.48
78313;BME280;67568;47.438;21.408;2023-06-19T01:56:30;100465.91;;;16.38;83.54
78313;BME280;67568;47.438;21.408;2023-06-19T01:58:57;100475.59;;;16.40;83.66
78313;BME280;67568;47.438;21.408;2023-06-19T02:01:26;100478.88;;;16.42;83.35
78313;BME280;67568;47.438;21.408;2023-06-19T02:03:53;100480.63;;;16.47;83.26
78313;BME280;67568;47.438;21.408;2023-06-19T02:06:20;100482.34;;;16.39;83.68
78313;BME280;67568;47.438;21.408;2023-06-19T02:08:48;100484.78;;;16.41;83.62
78313;BME280;67568;47.438;21.408;2023-06-19T02:11:14;100486.41;;;16.42;83.72
78313;BME280;67568;47.438;21.408;2023-06-19T02:13:42;100486.34;;;16.30;84.34
78313;BME280;67568;47.438;21.408;2023-06-19T02:16:10;100480.88;;;16.33;84.25
78313;BME280;67568;47.438;21.408;2023-06-19T02:18:36;100488.00;;;16.31;84.36
78313;BME280;67568;47.438;21.408;2023-06-19T02:21:06;100481.88;;;16.37;83.81
78313;BME280;67568;47.438;21.408;2023-06-19T02:23:33;100479.69;;;16.43;83.45
78313;BME280;67568;47.438;21.408;2023-06-19T02:26:02;100490.88;;;16.43;83.47
78313;BME280;67568;47.438;21.408;2023-06-19T02:28:31;100484.47;;;16.42;83.31
78313;BME280;67568;47.438;21.408;2023-06-19T02:30:59;100476.66;;;16.27;84.50
78313;BME280;67568;47.438;21.408;2023-06-19T02:33:29;100484.34;;;16.30;84.42
78313;BME280;67568;47.438;21.408;2023-06-19T02:35:57;100481.88;;;16.37;83.54
78313;BME280;67568;47.438;21.408;2023-06-19T02:38:25;100480.25;;;16.36;84.05
78313;BME280;67568;47.438;21.408;2023-06-19T02:40:53;100476.81;;;16.31;83.75
78313;BME280;67568;47.438;21.408;2023-06-19T02:43:20;100483.53;;;16.30;83.51
78313;BME280;67568;47.438;21.408;2023-06-19T02:45:47;100480.25;;;16.28;83.75
78313;BME280;67568;47.438;21.408;2023-06-19T02:48:14;100473.03;;;16.27;83.98
78313;BME280;67568;47.438;21.408;2023-06-19T02:50:40;100480.47;;;16.23;83.92
78313;BME280;67568;47.438;21.408;2023-06-19T02:53:07;100473.84;;;15.98;85.27
78313;BME280;67568;47.438;21.408;2023-06-19T02:55:34;100478.00;;;15.91;85.88
78313;BME280;67568;47.438;21.408;2023-06-19T02:58:03;100478.97;;;15.87;85.88
78313;BME280;67568;47.438;21.408;2023-06-19T03:00:30;100475.66;;;15.93;85.09
78313;BME280;67568;47.438;21.408;2023-06-19T03:03:03;100475.94;;;16.09;84.72
78313;BME280;67568;47.438;21.408;2023-06-19T03:05:32;100484.13;;;16.14;84.28
78313;BME280;67568;47.438;21.408;2023-06-19T03:07:59;100485.09;;;16.18;84.08
78313;BME280;67568;47.438;21.408;2023-06-19T03:10:26;100484.41;;;16.22;84.44
78313;BME280;67568;47.438;21.408;2023-06-19T03:12:53;100489.31;;;16.25;84.30
78313;BME280;67568;47.438;21.408;2023-06-19T03:15:20;100482.78;;;16.21;84.42
78313;BME280;67568;47.438;21.408;2023-06-19T03:17:47;100481.97;;;16.20;84.08
78313;BME280;67568;47.438;21.408;2023-06-19T03:20:13;100473.09;;;16.18;83.94
78313;BME280;67568;47.438;21.408;2023-06-19T03:22:40;100478.81;;;16.22;83.87
78313;BME280;67568;47.438;21.408;2023-06-19T03:25:08;100484.91;;;16.24;83.65
78313;BME280;67568;47.438;21.408;2023-06-19T03:27:34;100483.72;;;16.25;83.59
78313;BME280;67568;47.438;21.408;2023-06-19T03:30:03;100486.53;;;16.25;84.17
78313;BME280;67568;47.438;21.408;2023-06-19T03:32:33;100483.94;;;16.19;84.02
78313;BME280;67568;47.438;21.408;2023-06-19T03:35:00;100488.19;;;16.26;83.83
78313;BME280;67568;47.438;21.408;2023-06-19T03:37:27;100490.44;;;16.32;84.00
78313;BME280;67568;47.438;21.408;2023-06-19T03:39:54;100495.22;;;16.32;83.46
78313;BME280;67568;47.438;21.408;2023-06-19T03:42:21;100505.06;;;16.38;83.35
78313;BME280;67568;47.438;21.408;2023-06-19T03:44:50;100494.81;;;16.42;83.19
78313;BME280;67568;47.438;21.408;2023-06-19T03:47:18;100499.81;;;16.36;83.65
78313;BME280;67568;47.438;21.408;2023-06-19T03:49:45;100495.78;;;16.46;83.82
78313;BME280;67568;47.438;21.408;2023-06-19T03:52:12;100497.22;;;16.52;83.39
78313;BME280;67568;47.438;21.408;2023-06-19T03:54:39;100499.16;;;16.60;83.40
78313;BME280;67568;47.438;21.408;2023-06-19T03:57:06;100498.09;;;16.74;82.65
78313;BME280;67568;47.438;21.408;2023-06-19T03:59:32;100490.97;;;16.85;82.94
78313;BME280;67568;47.438;21.408;2023-06-19T04:02:01;100497.63;;;16.93;82.63
78313;BME280;67568;47.438;21.408;2023-06-19T04:04:28;100495.44;;;16.98;83.36
78313;BME280;67568;47.438;21.408;2023-06-19T04:06:56;100492.94;;;17.05;82.72
78313;BME280;67568;47.438;21.408;2023-06-19T04:09:23;100487.00;;;16.86;84.27
78313;BME280;67568;47.438;21.408;2023-06-19T04:11:49;100496.69;;;16.89;84.14
78313;BME280;67568;47.438;21.408;2023-06-19T04:14:19;100507.25;;;16.83;84.73
78313;BME280;67568;47.438;21.408;2023-06-19T04:16:45;100505.56;;;16.91;84.49
78313;BME280;67568;47.438;21.408;2023-06-19T04:19:12;100499.81;;;17.08;83.51
78313;BME280;67568;47.438;21.408;2023-06-19T04:21:40;100500.09;;;16.94;84.39
78313;BME280;67568;47.438;21.408;2023-06-19T04:24:06;100510.59;;;16.97;83.96
78313;BME280;67568;47.438;21.408;2023-06-19T04:26:33;100516.38;;;17.13;83.57
78313;BME280;67568;47.438;21.408;2023-06-19T04:29:00;100514.56;;;17.17;83.23
78313;BME280;67568;47.438;21.408;2023-06-19T04:31:36;100516.72;;;17.33;82.53
78313;BME280;67568;47.438;21.408;2023-06-19T04:34:08;100511.72;;;17.38;82.33
78313;BME280;67568;47.438;21.408;2023-06-19T04:36:36;100509.44;;;17.52;81.20
78313;BME280;67568;47.438;21.408;2023-06-19T04:39:05;100504.41;;;17.46;82.21
78313;BME280;67568;47.438;21.408;2023-06-19T04:41:32;100506.78;;;17.23;82.64
78313;BME280;67568;47.438;21.408;2023-06-19T04:43:59;100504.22;;;17.30;82.95
78313;BME280;67568;47.438;21.408;2023-06-19T04:46:26;100520.13;;;17.38;82.45
78313;BME280;67568;47.438;21.408;2023-06-19T04:48:55;100521.41;;;17.62;81.26
78313;BME280;67568;47.438;21.408;2023-06-19T04:51:22;100518.88;;;17.81;80.99
78313;BME280;67568;47.438;21.408;2023-06-19T04:53:49;100519.16;;;18.01;79.77
78313;BME280;67568;47.438;21.408;2023-06-19T04:56:16;100514.63;;;18.08;80.12
78313;BME280;67568;47.438;21.408;2023-06-19T04:58:43;100515.44;;;18.21;79.20
78313;BME280;67568;47.438;21.408;2023-06-19T05:01:10;100522.75;;;17.89;81.77
78313;BME280;67568;47.438;21.408;2023-06-19T05:03:37;100526.44;;;18.02;81.25
78313;BME280;67568;47.438;21.408;2023-06-19T05:06:04;100524.00;;;18.25;79.94
78313;BME280;67568;47.438;21.408;2023-06-19T05:08:34;100521.66;;;18.39;79.73
78313;BME280;67568;47.438;21.408;2023-06-19T05:11:04;100524.09;;;18.53;79.29
78313;BME280;67568;47.438;21.408;2023-06-19T05:13:30;100535.09;;;18.70;78.86
78313;BME280;67568;47.438;21.408;2023-06-19T05:15:57;100538.94;;;18.90;77.86
78313;BME280;67568;47.438;21.408;2023-06-19T05:18:24;100549.22;;;18.86;78.00
78313;BME280;67568;47.438;21.408;2023-06-19T05:20:51;100553.69;;;18.87;78.09
78313;BME280;67568;47.438;21.408;2023-06-19T05:23:18;100549.78;;;19.04;77.76
78313;BME280;67568;47.438;21.408;2023-06-19T05:25:44;100552.09;;;19.14;77.81
78313;BME280;67568;47.438;21.408;2023-06-19T05:28:11;100552.28;;;19.33;76.22
78313;BME280;67568;47.438;21.408;2023-06-19T05:30:38;100555.75;;;19.43;76.89
78313;BME280;67568;47.438;21.408;2023-06-19T05:33:07;100555.97;;;19.50;76.77
78313;BME280;67568;47.438;21.408;2023-06-19T05:35:34;100561.41;;;19.71;75.34
78313;BME280;67568;47.438;21.408;2023-06-19T05:38:01;100563.56;;;19.77;75.74
78313;BME280;67568;47.438;21.408;2023-06-19T05:40:27;100560.09;;;19.96;75.57
78313;BME280;67568;47.438;21.408;2023-06-19T05:42:58;100569.88;;;20.03;75.36
78313;BME280;67568;47.438;21.408;2023-06-19T05:45:25;100569.78;;;20.15;74.68
78313;BME280;67568;47.438;21.408;2023-06-19T05:47:52;100567.63;;;20.08;74.78
78313;BME280;67568;47.438;21.408;2023-06-19T05:50:19;100567.38;;;20.13;75.13
78313;BME280;67568;47.438;21.408;2023-06-19T05:52:46;100578.69;;;20.17;74.95
78313;BME280;67568;47.438;21.408;2023-06-19T05:55:15;100571.63;;;20.07;75.20
78313;BME280;67568;47.438;21.408;2023-06-19T05:57:42;100574.53;;;20.11;75.56
78313;BME280;67568;47.438;21.408;2023-06-19T06:00:12;100578.63;;;20.45;75.10
78313;BME280;67568;47.438;21.408;2023-06-19T06:02:40;100578.47;;;20.38;75.13
78313;BME280;67568;47.438;21.408;2023-06-19T06:05:08;100582.56;;;20.72;73.59
78313;BME280;67568;47.438;21.408;2023-06-19T06:07:39;100583.63;;;20.83;73.68
78313;BME280;67568;47.438;21.408;2023-06-19T06:10:07;100585.16;;;21.16;71.91
78313;BME280;67568;47.438;21.408;2023-06-19T06:12:34;100589.38;;;21.42;71.60
78313;BME280;67568;47.438;21.408;2023-06-19T06:15:02;100589.31;;;21.58;71.23
78313;BME280;67568;47.438;21.408;2023-06-19T06:17:29;100591.19;;;21.34;72.61
78313;BME280;67568;47.438;21.408;2023-06-19T06:19:55;100591.75;;;21.59;70.86
78313;BME280;67568;47.438;21.408;2023-06-19T06:22:22;100597.31;;;21.55;71.36
78313;BME280;67568;47.438;21.408;2023-06-19T06:24:49;100598.06;;;21.52;71.91
78313;BME280;67568;47.438;21.408;2023-06-19T06:27:16;100608.75;;;21.43;72.24
78313;BME280;67568;47.438;21.408;2023-06-19T06:29:48;100602.34;;;21.66;70.59
78313;BME280;67568;47.438;21.408;2023-06-19T06:32:15;100605.09;;;21.82;70.67
78313;BME280;67568;47.438;21.408;2023-06-19T06:34:50;100610.22;;;21.95;70.24
78313;BME280;67568;47.438;21.408;2023-06-19T06:37:20;100615.34;;;21.90;70.02
78313;BME280;67568;47.438;21.408;2023-06-19T06:39:47;100606.94;;;21.93;69.95
78313;BME280;67568;47.438;21.408;2023-06-19T06:42:14;100604.75;;;21.83;70.92
78313;BME280;67568;47.438;21.408;2023-06-19T06:44:40;100605.63;;;21.87;70.57
78313;BME280;67568;47.438;21.408;2023-06-19T06:47:07;100613.50;;;21.97;70.31
78313;BME280;67568;47.438;21.408;2023-06-19T06:49:36;100606.91;;;22.13;69.60
78313;BME280;67568;47.438;21.408;2023-06-19T06:52:04;100614.94;;;22.11;69.60
78313;BME280;67568;47.438;21.408;2023-06-19T06:54:31;100605.97;;;22.05;69.52
78313;BME280;67568;47.438;21.408;2023-06-19T06:56:58;100604.06;;;22.32;68.99
78313;BME280;67568;47.438;21.408;2023-06-19T06:59:28;100604.59;;;22.38;68.21
78313;BME280;67568;47.438;21.408;2023-06-19T07:02:01;100607.16;;;22.47;67.81
78313;BME280;67568;47.438;21.408;2023-06-19T07:04:46;100593.59;;;22.56;67.53
78313;BME280;67568;47.438;21.408;2023-06-19T07:07:13;100603.91;;;22.71;67.45
78313;BME280;67568;47.438;21.408;2023-06-19T07:09:40;100607.34;;;22.84;66.89
78313;BME280;67568;47.438;21.408;2023-06-19T07:12:07;100612.75;;;22.93;66.43
78313;BME280;67568;47.438;21.408;2023-06-19T07:14:34;100611.00;;;22.84;65.92
78313;BME280;67568;47.438;21.408;2023-06-19T07:17:01;100615.03;;;22.83;66.69
78313;BME280;67568;47.438;21.408;2023-06-19T07:19:28;100608.84;;;22.74;66.60
78313;BME280;67568;47.438;21.408;2023-06-19T07:21:55;100615.84;;;22.84;67.00
78313;BME280;67568;47.438;21.408;2023-06-19T07:24:22;100615.06;;;23.10;65.97
78313;BME280;67568;47.438;21.408;2023-06-19T07:26:50;100605.03;;;23.16;66.48
78313;BME280;67568;47.438;21.408;2023-06-19T07:29:20;100618.75;;;23.14;65.49
78313;BME280;67568;47.438;21.408;2023-06-19T07:31:47;100610.69;;;23.16;65.89
78313;BME280;67568;47.438;21.408;2023-06-19T07:34:15;100619.28;;;22.97;65.43
78313;BME280;67568;47.438;21.408;2023-06-19T07:36:44;100610.69;;;23.16;65.33
78313;BME280;67568;47.438;21.408;2023-06-19T07:39:11;100620.78;;;23.44;65.11
78313;BME280;67568;47.438;21.408;2023-06-19T07:41:38;100616.41;;;23.50;64.19
78313;BME280;67568;47.438;21.408;2023-06-19T07:44:04;100623.56;;;23.70;63.32
78313;BME280;67568;47.438;21.408;2023-06-19T07:46:31;100622.97;;;23.88;63.13
78313;BME280;67568;47.438;21.408;2023-06-19T07:48:58;100623.22;;;24.09;62.53
78313;BME280;67568;47.438;21.408;2023-06-19T07:51:25;100629.53;;;23.95;62.45
78313;BME280;67568;47.438;21.408;2023-06-19T07:53:52;100626.03;;;24.06;62.06
78313;BME280;67568;47.438;21.408;2023-06-19T07:56:30;100624.00;;;24.06;62.36
78313;BME280;67568;47.438;21.408;2023-06-19T07:58:57;100629.22;;;24.41;60.45
78313;BME280;67568;47.438;21.408;2023-06-19T08:01:24;100624.47;;;24.49;60.67
78313;BME280;67568;47.438;21.408;2023-06-19T08:03:52;100621.31;;;24.61;59.71
78313;BME280;67568;47.438;21.408;2023-06-19T08:06:25;100622.56;;;24.64;59.95
78313;BME280;67568;47.438;21.408;2023-06-19T08:08:55;100625.00;;;24.62;59.40
78313;BME280;67568;47.438;21.408;2023-06-19T08:11:22;100619.72;;;24.64;57.64
78313;BME280;67568;47.438;21.408;2023-06-19T08:13:54;100625.81;;;24.62;59.51
78313;BME280;67568;47.438;21.408;2023-06-19T08:16:30;100629.22;;;24.86;59.17
78313;BME280;67568;47.438;21.408;2023-06-19T08:18:56;100628.47;;;24.92;59.08
78313;BME280;67568;47.438;21.408;2023-06-19T08:21:23;100622.59;;;24.67;57.93
78313;BME280;67568;47.438;21.408;2023-06-19T08:23:50;100627.28;;;24.97;58.15
78313;BME280;67568;47.438;21.408;2023-06-19T08:26:17;100622.53;;;25.12;57.28
78313;BME280;67568;47.438;21.408;2023-06-19T08:28:43;100625.84;;;25.18;57.62
78313;BME280;67568;47.438;21.408;2023-06-19T08:31:10;100636.91;;;25.44;56.44
78313;BME280;67568;47.438;21.408;2023-06-19T08:33:37;100625.47;;;25.23;55.84
78313;BME280;67568;47.438;21.408;2023-06-19T08:36:04;100628.81;;;25.43;55.70
78313;BME280;67568;47.438;21.408;2023-06-19T08:38:33;100618.44;;;25.09;54.34
78313;BME280;67568;47.438;21.408;2023-06-19T08:41:06;100624.75;;;25.37;55.41
78313;BME280;67568;47.438;21.408;2023-06-19T08:43:33;100615.97;;;25.01;57.75
78313;BME280;67568;47.438;21.408;2023-06-19T08:48:27;100619.00;;;25.22;56.31
78313;BME280;67568;47.438;21.408;2023-06-19T08:50:55;100619.03;;;25.33;56.48
78313;BME280;67568;47.438;21.408;2023-06-19T08:53:21;100620.31;;;25.46;55.61
78313;BME280;67568;47.438;21.408;2023-06-19T08:55:48;100603.31;;;25.50;56.19
78313;BME280;67568;47.438;21.408;2023-06-19T08:58:21;100601.31;;;25.54;55.47
78313;BME280;67568;47.438;21.408;2023-06-19T09:00:49;100606.63;;;25.59;55.70
78313;BME280;67568;47.438;21.408;2023-06-19T09:03:22;100598.50;;;25.57;54.77
78313;BME280;67568;47.438;21.408;2023-06-19T09:05:49;100595.59;;;25.47;55.55
78313;BME280;67568;47.438;21.408;2023-06-19T09:08:22;100590.75;;;25.51;54.39
78313;BME280;67568;47.438;21.408;2023-06-19T09:11:00;100599.28;;;25.47;52.64
78313;BME280;67568;47.438;21.408;2023-06-19T09:13:28;100592.75;;;25.40;53.80
78313;BME280;67568;47.438;21.408;2023-06-19T09:16:00;100609.75;;;25.36;52.63
78313;BME280;67568;47.438;21.408;2023-06-19T09:18:29;100602.47;;;25.42;53.51
78313;BME280;67568;47.438;21.408;2023-06-19T09:20:57;100593.59;;;25.47;54.42
78313;BME280;67568;47.438;21.408;2023-06-19T09:23:24;100600.81;;;25.38;55.06
78313;BME280;67568;47.438;21.408;2023-06-19T09:25:53;100593.66;;;25.62;54.17
78313;BME280;67568;47.438;21.408;2023-06-19T09:28:25;100593.63;;;25.54;52.47
78313;BME280;67568;47.438;21.408;2023-06-19T09:30:57;100596.81;;;25.49;55.13
78313;BME280;67568;47.438;21.408;2023-06-19T09:33:31;100602.50;;;25.46;54.05
78313;BME280;67568;47.438;21.408;2023-06-19T09:36:00;100598.47;;;25.50;54.32
78313;BME280;67568;47.438;21.408;2023-06-19T09:38:30;100603.78;;;25.63;52.68
78313;BME280;67568;47.438;21.408;2023-06-19T09:41:00;100600.19;;;25.73;52.42
78313;BME280;67568;47.438;21.408;2023-06-19T09:43:37;100596.94;;;25.74;51.96
78313;BME280;67568;47.438;21.408;2023-06-19T09:46:05;100598.13;;;25.70;50.00
78313;BME280;67568;47.438;21.408;2023-06-19T09:48:35;100598.63;;;25.83;51.52
78313;BME280;67568;47.438;21.408;2023-06-19T09:53:45;100597.84;;;25.93;51.50
78313;BME280;67568;47.438;21.408;2023-06-19T09:56:13;100600.31;;;26.09;51.30
78313;BME280;67568;47.438;21.408;2023-06-19T09:58:44;100602.38;;;26.22;50.90
78313;BME280;67568;47.438;21.408;2023-06-19T10:01:16;100593.81;;;26.12;49.57
78313;BME280;67568;47.438;21.408;2023-06-19T10:03:44;100598.31;;;26.20;49.36
78313;BME280;67568;47.438;21.408;2023-06-19T10:06:15;100594.66;;;26.23;48.61
78313;BME280;67568;47.438;21.408;2023-06-19T10:08:43;100593.03;;;26.22;48.79
78313;BME280;67568;47.438;21.408;2023-06-19T10:11:11;100595.47;;;26.20;48.00
78313;BME280;67568;47.438;21.408;2023-06-19T10:13:40;100593.84;;;26.26;48.82
78313;BME280;67568;47.438;21.408;2023-06-19T10:16:12;100591.81;;;26.37;47.97
78313;BME280;67568;47.438;21.408;2023-06-19T10:18:46;100588.09;;;25.97;47.34
78313;BME280;67568;47.438;21.408;2023-06-19T10:21:20;100587.34;;;26.11;47.47
78313;BME280;67568;47.438;21.408;2023-06-19T10:23:55;100581.69;;;26.18;47.48
78313;BME280;67568;47.438;21.408;2023-06-19T10:26:34;100567.84;;;26.06;47.83
78313;BME280;67568;47.438;21.408;2023-06-19T10:29:01;100580.88;;;26.25;47.73
78313;BME280;67568;47.438;21.408;2023-06-19T10:31:39;100581.66;;;26.08;48.91
78313;BME280;67568;47.438;21.408;2023-06-19T10:34:06;100571.50;;;26.07;48.92
78313;BME280;67568;47.438;21.408;2023-06-19T10:36:33;100578.44;;;26.31;48.44
78313;BME280;67568;47.438;21.408;2023-06-19T10:39:00;100576.81;;;26.19;48.48
78313;BME280;67568;47.438;21.408;2023-06-19T10:41:26;100580.88;;;26.21;48.50
78313;BME280;67568;47.438;21.408;2023-06-19T10:43:56;100584.94;;;26.31;48.40
78313;BME280;67568;47.438;21.408;2023-06-19T10:46:25;100579.63;;;26.05;48.65
78313;BME280;67568;47.438;21.408;2023-06-19T10:48:55;100576.72;;;25.87;49.24
78313;BME280;67568;47.438;21.408;2023-06-19T10:51:23;100568.13;;;25.69;48.92
78313;BME280;67568;47.438;21.408;2023-06-19T10:53:50;100558.78;;;25.65;48.88
78313;BME280;67568;47.438;21.408;2023-06-19T10:56:20;100562.78;;;25.49;48.83
78313;BME280;67568;47.438;21.408;2023-06-19T10:58:47;100560.03;;;25.71;48.51
78313;BME280;67568;47.438;21.408;2023-06-19T11:01:14;100555.25;;;26.00;47.47
78313;BME280;67568;47.438;21.408;2023-06-19T11:03:40;100559.31;;;26.06;47.32
78313;BME280;67568;47.438;21.408;2023-06-19T11:06:07;100564.63;;;26.29;46.95
78313;BME280;67568;47.438;21.408;2023-06-19T11:08:34;100556.09;;;26.40;46.35
78313;BME280;67568;47.438;21.408;2023-06-19T11:11:01;100556.56;;;26.53;45.29
78313;BME280;67568;47.438;21.408;2023-06-19T11:13:29;100546.78;;;26.39;45.56
78313;BME280;67568;47.438;21.408;2023-06-19T11:15:58;100557.75;;;26.52;43.82
78313;BME280;67568;47.438;21.408;2023-06-19T11:18:24;100555.72;;;26.63;45.61
78313;BME280;67568;47.438;21.408;2023-06-19T11:20:52;100548.00;;;26.74;45.65
78313;BME280;67568;47.438;21.408;2023-06-19T11:23:30;100545.56;;;26.80;41.52
78313;BME280;67568;47.438;21.408;2023-06-19T11:26:06;100541.88;;;26.90;42.25
78313;BME280;67568;47.438;21.408;2023-06-19T11:28:33;100541.84;;;27.01;42.95
78313;BME280;67568;47.438;21.408;2023-06-19T11:31:01;100541.44;;;27.02;42.33
78313;BME280;67568;47.438;21.408;2023-06-19T11:33:29;100545.13;;;26.88;41.50
78313;BME280;67568;47.438;21.408;2023-06-19T11:36:00;100532.16;;;26.87;42.72
78313;BME280;67568;47.438;21.408;2023-06-19T11:38:27;100541.06;;;26.89;42.34
78313;BME280;67568;47.438;21.408;2023-06-19T11:40:55;100541.06;;;26.86;42.19
78313;BME280;67568;47.438;21.408;2023-06-19T11:43:26;100536.97;;;27.05;42.06
78313;BME280;67568;47.438;21.408;2023-06-19T11:45:54;100538.25;;;26.79;42.44
78313;BME280;67568;47.438;21.408;2023-06-19T11:48:26;100540.25;;;26.92;41.74
78313;BME280;67568;47.438;21.408;2023-06-19T11:50:53;100536.16;;;27.01;41.77
78313;BME280;67568;47.438;21.408;2023-06-19T11:53:21;100536.19;;;26.90;41.48
78313;BME280;67568;47.438;21.408;2023-06-19T11:55:49;100532.97;;;26.84;40.73
78313;BME280;67568;47.438;21.408;2023-06-19T11:58:17;100523.19;;;26.85;41.06
78313;BME280;67568;47.438;21.408;2023-06-19T12:00:43;100529.72;;;26.82;41.46
78313;BME280;67568;47.438;21.408;2023-06-19T12:03:10;100527.66;;;26.86;41.56
78313;BME280;67568;47.438;21.408;2023-06-19T12:05:37;100529.72;;;26.32;42.10
78313;BME280;67568;47.438;21.408;2023-06-19T12:08:05;100527.28;;;26.13;42.73
78313;BME280;67568;47.438;21.408;2023-06-19T12:10:32;100530.94;;;26.13;42.69
78313;BME280;67568;47.438;21.408;2023-06-19T12:12:59;100521.59;;;26.23;43.00
78313;BME280;67568;47.438;21.408;2023-06-19T12:15:26;100515.94;;;26.16;43.13
78313;BME280;67568;47.438;21.408;2023-06-19T12:17:53;100515.94;;;26.31;41.75
78313;BME280;67568;47.438;21.408;2023-06-19T12:20:20;100516.31;;;26.43;42.20
78313;BME280;67568;47.438;21.408;2023-06-19T12:22:47;100509.84;;;26.57;41.74
78313;BME280;67568;47.438;21.408;2023-06-19T12:25:14;100504.94;;;26.76;41.38
78313;BME280;67568;47.438;21.408;2023-06-19T12:27:41;100505.34;;;26.85;40.84
78313;BME280;67568;47.438;21.408;2023-06-19T12:30:08;100505.72;;;26.83;40.76
78313;BME280;67568;47.438;21.408;2023-06-19T12:32:35;100496.78;;;26.88;40.33
78313;BME280;67568;47.438;21.408;2023-06-19T12:35:05;100498.41;;;26.93;40.25
78313;BME280;67568;47.438;21.408;2023-06-19T12:37:31;100491.06;;;26.99;39.24
78313;BME280;67568;47.438;21.408;2023-06-19T12:39:58;100496.31;;;27.08;39.13
78313;BME280;67568;47.438;21.408;2023-06-19T12:42:25;100497.94;;;27.12;39.25
78313;BME280;67568;47.438;21.408;2023-06-19T12:44:52;100495.06;;;27.23;37.81
78313;BME280;67568;47.438;21.408;2023-06-19T12:47:19;100486.13;;;27.14;38.84
78313;BME280;67568;47.438;21.408;2023-06-19T12:49:45;100486.94;;;27.25;38.88
78313;BME280;67568;47.438;21.408;2023-06-19T12:52:12;100475.63;;;27.00;38.58